Terminal Aerodrome Forecast
Issued by NWS

Home | Current Version | Previous Version | Text Only | Print | Product List | Glossary On
Versions: 1 2 3 4 5 6 7 8 9 10 11 12 13
000
FTUS46 KPDT 032320
TAFYKM
TAF
KYKM 032320Z 0400/0424 11005KT P6SM SKC
     FM040300 32011KT P6SM SKC
     FM041200 28004KT P6SM SKC
     FM042100 VRB05KT P6SM SKC=

USA.gov is the U.S. government's official web portal to all federal, state and local government web resources and services.